sensor_id;sensor_type;location;lat;lon;timestamp;temperature;humidity
7317;DHT22;3699;51.462;6.696;2022-07-17T00:01:32;16.20;99.90
7317;DHT22;3699;51.462;6.696;2022-07-17T00:03:59;16.10;99.90
7317;DHT22;3699;51.462;6.696;2022-07-17T00:06:26;16.10;99.90
7317;DHT22;3699;51.462;6.696;2022-07-17T00:08:53;16.10;99.90
7317;DHT22;3699;51.462;6.696;2022-07-17T00:11:20;16.00;99.90
7317;DHT22;3699;51.462;6.696;2022-07-17T00:13:48;16.00;99.90
7317;DHT22;3699;51.462;6.696;2022-07-17T00:16:15;16.00;99.90
7317;DHT22;3699;51.462;6.696;2022-07-17T00:18:42;15.90;99.90
7317;DHT22;3699;51.462;6.696;2022-07-17T00:21:09;15.90;99.90
7317;DHT22;3699;51.462;6.696;2022-07-17T00:23:36;15.90;99.90
7317;DHT22;3699;51.462;6.696;2022-07-17T00:26:04;15.80;99.90
7317;DHT22;3699;51.462;6.696;2022-07-17T00:28:31;15.70;99.90
7317;DHT22;3699;51.462;6.696;2022-07-17T00:30:59;15.70;99.90
7317;DHT22;3699;51.462;6.696;2022-07-17T00:33:26;15.60;99.90
7317;DHT22;3699;51.462;6.696;2022-07-17T00:35:53;15.60;99.90
7317;DHT22;3699;51.462;6.696;2022-07-17T00:38:19;15.50;99.90
7317;DHT22;3699;51.462;6.696;2022-07-17T00:40:46;15.40;99.90
7317;DHT22;3699;51.462;6.696;2022-07-17T00:43:13;15.30;99.90
7317;DHT22;3699;51.462;6.696;2022-07-17T00:45:40;15.30;99.90
7317;DHT22;3699;51.462;6.696;2022-07-17T00:48:10;15.20;99.90
7317;DHT22;3699;51.462;6.696;2022-07-17T00:50:39;15.10;99.90
7317;DHT22;3699;51.462;6.696;2022-07-17T00:53:07;15.10;99.90
7317;DHT22;3699;51.462;6.696;2022-07-17T00:55:34;15.00;99.90
7317;DHT22;3699;51.462;6.696;2022-07-17T00:58:03;15.00;99.90
7317;DHT22;3699;51.462;6.696;2022-07-17T01:00:31;14.90;99.90
7317;DHT22;3699;51.462;6.696;2022-07-17T01:02:58;14.90;99.90
7317;DHT22;3699;51.462;6.696;2022-07-17T01:05:27;14.80;99.90
7317;DHT22;3699;51.462;6.696;2022-07-17T01:07:54;14.80;99.90
7317;DHT22;3699;51.462;6.696;2022-07-17T01:10:20;14.70;99.90
7317;DHT22;3699;51.462;6.696;2022-07-17T01:12:48;14.70;99.90
7317;DHT22;3699;51.462;6.696;2022-07-17T01:15:15;14.70;99.90
7317;DHT22;3699;51.462;6.696;2022-07-17T01:17:43;14.60;99.90
7317;DHT22;3699;51.462;6.696;2022-07-17T01:20:11;14.60;99.90
7317;DHT22;3699;51.462;6.696;2022-07-17T01:22:42;14.60;99.90
7317;DHT22;3699;51.462;6.696;2022-07-17T01:25:10;14.50;99.90
7317;DHT22;3699;51.462;6.696;2022-07-17T01:27:37;14.60;99.90
7317;DHT22;3699;51.462;6.696;2022-07-17T01:30:05;14.50;99.90
7317;DHT22;3699;51.462;6.696;2022-07-17T01:32:33;14.60;99.90
7317;DHT22;3699;51.462;6.696;2022-07-17T01:35:00;14.60;99.90
7317;DHT22;3699;51.462;6.696;2022-07-17T01:37:27;14.60;99.90
7317;DHT22;3699;51.462;6.696;2022-07-17T01:39:56;14.60;99.90
7317;DHT22;3699;51.462;6.696;2022-07-17T01:42:24;14.60;99.90
7317;DHT22;3699;51.462;6.696;2022-07-17T01:44:51;14.60;99.90
7317;DHT22;3699;51.462;6.696;2022-07-17T01:47:18;14.50;99.90
7317;DHT22;3699;51.462;6.696;2022-07-17T01:49:47;14.50;99.90
7317;DHT22;3699;51.462;6.696;2022-07-17T01:52:14;14.50;99.90
7317;DHT22;3699;51.462;6.696;2022-07-17T01:54:42;14.50;99.90
7317;DHT22;3699;51.462;6.696;2022-07-17T01:57:11;14.50;99.90
7317;DHT22;3699;51.462;6.696;2022-07-17T01:59:39;14.40;99.90
7317;DHT22;3699;51.462;6.696;2022-07-17T02:02:07;14.40;99.90
7317;DHT22;3699;51.462;6.696;2022-07-17T02:04:35;14.30;99.90
7317;DHT22;3699;51.462;6.696;2022-07-17T02:07:02;14.30;99.90
7317;DHT22;3699;51.462;6.696;2022-07-17T02:09:30;14.30;99.90
7317;DHT22;3699;51.462;6.696;2022-07-17T02:11:57;14.30;99.90
7317;DHT22;3699;51.462;6.696;2022-07-17T02:14:25;14.30;99.90
7317;DHT22;3699;51.462;6.696;2022-07-17T02:16:52;14.30;99.90
7317;DHT22;3699;51.462;6.696;2022-07-17T02:19:19;14.20;99.90
7317;DHT22;3699;51.462;6.696;2022-07-17T02:21:47;14.20;99.90
7317;DHT22;3699;51.462;6.696;2022-07-17T02:24:14;14.20;99.90
7317;DHT22;3699;51.462;6.696;2022-07-17T02:26:42;14.10;99.90
7317;DHT22;3699;51.462;6.696;2022-07-17T02:29:09;14.10;99.90
7317;DHT22;3699;51.462;6.696;2022-07-17T02:31:37;14.10;99.90
7317;DHT22;3699;51.462;6.696;2022-07-17T02:34:04;14.10;99.90
7317;DHT22;3699;51.462;6.696;2022-07-17T02:36:33;14.00;99.90
7317;DHT22;3699;51.462;6.696;2022-07-17T02:39:01;14.00;99.90
7317;DHT22;3699;51.462;6.696;2022-07-17T02:41:28;14.00;99.90
7317;DHT22;3699;51.462;6.696;2022-07-17T02:43:55;14.00;99.90
7317;DHT22;3699;51.462;6.696;2022-07-17T02:46:22;14.00;99.90
7317;DHT22;3699;51.462;6.696;2022-07-17T02:48:50;14.00;99.90
7317;DHT22;3699;51.462;6.696;2022-07-17T02:51:17;13.90;99.90
7317;DHT22;3699;51.462;6.696;2022-07-17T02:53:44;13.90;99.90
7317;DHT22;3699;51.462;6.696;2022-07-17T02:56:10;13.90;99.90
7317;DHT22;3699;51.462;6.696;2022-07-17T02:58:38;13.90;99.90
7317;DHT22;3699;51.462;6.696;2022-07-17T03:01:05;13.80;99.90
7317;DHT22;3699;51.462;6.696;2022-07-17T03:03:32;13.80;99.90
7317;DHT22;3699;51.462;6.696;2022-07-17T03:06:00;13.80;99.90
7317;DHT22;3699;51.462;6.696;2022-07-17T03:08:27;13.70;99.90
7317;DHT22;3699;51.462;6.696;2022-07-17T03:10:54;13.70;99.90
7317;DHT22;3699;51.462;6.696;2022-07-17T03:13:21;13.70;99.90
7317;DHT22;3699;51.462;6.696;2022-07-17T03:15:47;13.60;99.90
7317;DHT22;3699;51.462;6.696;2022-07-17T03:18:14;13.60;99.90
7317;DHT22;3699;51.462;6.696;2022-07-17T03:20:41;13.60;99.90
7317;DHT22;3699;51.462;6.696;2022-07-17T03:23:09;13.60;99.90
7317;DHT22;3699;51.462;6.696;2022-07-17T03:25:36;13.50;99.90
7317;DHT22;3699;51.462;6.696;2022-07-17T03:28:03;13.50;99.90
7317;DHT22;3699;51.462;6.696;2022-07-17T03:30:30;13.50;99.90
7317;DHT22;3699;51.462;6.696;2022-07-17T03:32:57;13.50;99.90
7317;DHT22;3699;51.462;6.696;2022-07-17T03:35:24;13.40;99.90
7317;DHT22;3699;51.462;6.696;2022-07-17T03:37:50;13.40;99.90
7317;DHT22;3699;51.462;6.696;2022-07-17T03:40:19;13.40;99.90
7317;DHT22;3699;51.462;6.696;2022-07-17T03:42:47;13.40;99.90
7317;DHT22;3699;51.462;6.696;2022-07-17T03:45:13;13.40;99.90
7317;DHT22;3699;51.462;6.696;2022-07-17T03:47:40;13.40;99.90
7317;DHT22;3699;51.462;6.696;2022-07-17T03:50:07;13.40;99.90
7317;DHT22;3699;51.462;6.696;2022-07-17T03:52:35;13.40;99.90
7317;DHT22;3699;51.462;6.696;2022-07-17T03:55:02;13.40;99.90
7317;DHT22;3699;51.462;6.696;2022-07-17T03:57:30;13.40;99.90
7317;DHT22;3699;51.462;6.696;2022-07-17T03:59:57;13.40;99.90
7317;DHT22;3699;51.462;6.696;2022-07-17T04:02:24;13.40;99.90
7317;DHT22;3699;51.462;6.696;2022-07-17T04:04:51;13.50;99.90
7317;DHT22;3699;51.462;6.696;2022-07-17T04:07:17;13.50;99.90
7317;DHT22;3699;51.462;6.696;2022-07-17T04:09:55;13.50;99.90
7317;DHT22;3699;51.462;6.696;2022-07-17T04:12:21;13.60;99.90
7317;DHT22;3699;51.462;6.696;2022-07-17T04:14:50;13.60;99.90
7317;DHT22;3699;51.462;6.696;2022-07-17T04:17:17;13.70;99.90
7317;DHT22;3699;51.462;6.696;2022-07-17T04:19:44;13.70;99.90
7317;DHT22;3699;51.462;6.696;2022-07-17T04:22:10;13.80;99.90
7317;DHT22;3699;51.462;6.696;2022-07-17T04:24:37;13.90;99.90
7317;DHT22;3699;51.462;6.696;2022-07-17T04:27:04;14.00;99.90
7317;DHT22;3699;51.462;6.696;2022-07-17T04:29:31;14.30;99.90
7317;DHT22;3699;51.462;6.696;2022-07-17T04:31:59;14.70;99.90
7317;DHT22;3699;51.462;6.696;2022-07-17T04:34:26;15.10;99.90
7317;DHT22;3699;51.462;6.696;2022-07-17T04:36:53;15.50;99.90
7317;DHT22;3699;51.462;6.696;2022-07-17T04:39:20;16.00;99.90
7317;DHT22;3699;51.462;6.696;2022-07-17T04:41:48;16.40;99.90
7317;DHT22;3699;51.462;6.696;2022-07-17T04:44:15;16.70;99.90
7317;DHT22;3699;51.462;6.696;2022-07-17T04:46:42;17.10;99.90
7317;DHT22;3699;51.462;6.696;2022-07-17T04:49:10;17.50;99.90
7317;DHT22;3699;51.462;6.696;2022-07-17T04:51:37;17.90;99.90
7317;DHT22;3699;51.462;6.696;2022-07-17T04:54:05;18.30;99.90
7317;DHT22;3699;51.462;6.696;2022-07-17T04:56:32;18.60;99.90
7317;DHT22;3699;51.462;6.696;2022-07-17T04:58:58;18.80;99.90
7317;DHT22;3699;51.462;6.696;2022-07-17T05:01:25;19.00;99.90
7317;DHT22;3699;51.462;6.696;2022-07-17T05:03:52;19.10;99.90
7317;DHT22;3699;51.462;6.696;2022-07-17T05:06:20;19.10;99.90
7317;DHT22;3699;51.462;6.696;2022-07-17T05:08:47;19.10;99.90
7317;DHT22;3699;51.462;6.696;2022-07-17T05:11:14;19.10;99.90
7317;DHT22;3699;51.462;6.696;2022-07-17T05:13:41;19.20;99.90
7317;DHT22;3699;51.462;6.696;2022-07-17T05:16:08;19.40;99.90
7317;DHT22;3699;51.462;6.696;2022-07-17T05:18:35;19.70;99.90
7317;DHT22;3699;51.462;6.696;2022-07-17T05:21:01;20.00;99.90
7317;DHT22;3699;51.462;6.696;2022-07-17T05:23:30;20.40;99.90
7317;DHT22;3699;51.462;6.696;2022-07-17T05:25:57;20.70;99.90
7317;DHT22;3699;51.462;6.696;2022-07-17T05:28:23;21.00;99.90
7317;DHT22;3699;51.462;6.696;2022-07-17T05:30:50;21.20;99.90
7317;DHT22;3699;51.462;6.696;2022-07-17T05:33:17;21.50;99.90
7317;DHT22;3699;51.462;6.696;2022-07-17T05:35:44;21.70;95.40
7317;DHT22;3699;51.462;6.696;2022-07-17T05:38:11;21.80;94.40
7317;DHT22;3699;51.462;6.696;2022-07-17T05:40:39;22.00;94.10
7317;DHT22;3699;51.462;6.696;2022-07-17T05:43:06;22.20;91.90
7317;DHT22;3699;51.462;6.696;2022-07-17T05:45:33;22.40;88.60
7317;DHT22;3699;51.462;6.696;2022-07-17T05:47:59;22.50;86.30
7317;DHT22;3699;51.462;6.696;2022-07-17T05:50:27;22.60;82.50
7317;DHT22;3699;51.462;6.696;2022-07-17T05:52:55;22.70;82.90
7317;DHT22;3699;51.462;6.696;2022-07-17T05:55:22;22.90;79.60
7317;DHT22;3699;51.462;6.696;2022-07-17T05:57:50;23.00;76.50
7317;DHT22;3699;51.462;6.696;2022-07-17T06:00:17;22.90;76.80
7317;DHT22;3699;51.462;6.696;2022-07-17T06:02:45;23.10;77.10
7317;DHT22;3699;51.462;6.696;2022-07-17T06:05:12;23.30;76.20
7317;DHT22;3699;51.462;6.696;2022-07-17T06:07:39;23.50;75.20
7317;DHT22;3699;51.462;6.696;2022-07-17T06:10:07;23.80;76.50
7317;DHT22;3699;51.462;6.696;2022-07-17T06:12:34;24.10;75.50
7317;DHT22;3699;51.462;6.696;2022-07-17T06:15:02;24.50;70.40
7317;DHT22;3699;51.462;6.696;2022-07-17T06:17:29;24.80;68.70
7317;DHT22;3699;51.462;6.696;2022-07-17T06:19:56;25.10;65.50
7317;DHT22;3699;51.462;6.696;2022-07-17T06:22:23;25.30;62.20
7317;DHT22;3699;51.462;6.696;2022-07-17T06:24:50;25.60;60.20
7317;DHT22;3699;51.462;6.696;2022-07-17T06:27:17;25.70;58.40
7317;DHT22;3699;51.462;6.696;2022-07-17T06:29:44;25.90;58.40
7317;DHT22;3699;51.462;6.696;2022-07-17T06:32:13;26.00;58.80
7317;DHT22;3699;51.462;6.696;2022-07-17T06:34:40;26.30;56.40
7317;DHT22;3699;51.462;6.696;2022-07-17T06:37:06;26.40;55.40
7317;DHT22;3699;51.462;6.696;2022-07-17T06:39:33;26.50;56.10
7317;DHT22;3699;51.462;6.696;2022-07-17T06:42:00;26.60;54.50
7317;DHT22;3699;51.462;6.696;2022-07-17T06:44:28;26.60;56.00
7317;DHT22;3699;51.462;6.696;2022-07-17T06:46:54;26.90;58.60
7317;DHT22;3699;51.462;6.696;2022-07-17T06:49:23;27.10;57.70
7317;DHT22;3699;51.462;6.696;2022-07-17T06:51:49;27.20;56.40
7317;DHT22;3699;51.462;6.696;2022-07-17T06:54:16;27.40;51.90
7317;DHT22;3699;51.462;6.696;2022-07-17T06:56:43;27.40;54.40
7317;DHT22;3699;51.462;6.696;2022-07-17T06:59:10;27.40;51.40
7317;DHT22;3699;51.462;6.696;2022-07-17T07:01:37;27.20;52.10
7317;DHT22;3699;51.462;6.696;2022-07-17T07:04:04;27.20;52.60
7317;DHT22;3699;51.462;6.696;2022-07-17T07:06:32;27.30;50.60
7317;DHT22;3699;51.462;6.696;2022-07-17T07:08:59;27.30;50.20
7317;DHT22;3699;51.462;6.696;2022-07-17T07:11:26;27.20;51.70
7317;DHT22;3699;51.462;6.696;2022-07-17T07:13:53;27.20;51.00
7317;DHT22;3699;51.462;6.696;2022-07-17T07:16:20;27.20;51.70
7317;DHT22;3699;51.462;6.696;2022-07-17T07:18:47;27.30;49.70
7317;DHT22;3699;51.462;6.696;2022-07-17T07:21:14;27.30;49.60
7317;DHT22;3699;51.462;6.696;2022-07-17T07:23:42;27.30;48.10
7317;DHT22;3699;51.462;6.696;2022-07-17T07:26:09;27.30;52.30
7317;DHT22;3699;51.462;6.696;2022-07-17T07:28:36;27.40;51.50
7317;DHT22;3699;51.462;6.696;2022-07-17T07:31:03;27.50;53.60
7317;DHT22;3699;51.462;6.696;2022-07-17T07:33:30;27.60;50.80
7317;DHT22;3699;51.462;6.696;2022-07-17T07:35:57;27.60;51.70
7317;DHT22;3699;51.462;6.696;2022-07-17T07:38:25;27.60;51.80
7317;DHT22;3699;51.462;6.696;2022-07-17T07:40:53;27.50;51.80
7317;DHT22;3699;51.462;6.696;2022-07-17T07:43:20;27.50;47.50
7317;DHT22;3699;51.462;6.696;2022-07-17T07:45:47;27.40;48.20
7317;DHT22;3699;51.462;6.696;2022-07-17T07:48:14;27.20;49.20
7317;DHT22;3699;51.462;6.696;2022-07-17T07:50:42;27.00;50.20
7317;DHT22;3699;51.462;6.696;2022-07-17T07:53:09;27.00;50.20
7317;DHT22;3699;51.462;6.696;2022-07-17T07:55:35;26.90;49.60
7317;DHT22;3699;51.462;6.696;2022-07-17T07:58:05;26.80;49.50
7317;DHT22;3699;51.462;6.696;2022-07-17T08:00:32;26.60;49.90
7317;DHT22;3699;51.462;6.696;2022-07-17T08:02:59;26.50;49.30
7317;DHT22;3699;51.462;6.696;2022-07-17T08:05:26;26.50;49.80
7317;DHT22;3699;51.462;6.696;2022-07-17T08:07:53;26.50;52.20
7317;DHT22;3699;51.462;6.696;2022-07-17T08:10:20;26.60;50.50
7317;DHT22;3699;51.462;6.696;2022-07-17T08:12:47;26.90;52.80
7317;DHT22;3699;51.462;6.696;2022-07-17T08:15:16;27.10;49.80
7317;DHT22;3699;51.462;6.696;2022-07-17T08:17:44;27.30;49.10
7317;DHT22;3699;51.462;6.696;2022-07-17T08:20:13;27.40;47.30
7317;DHT22;3699;51.462;6.696;2022-07-17T08:22:40;27.50;48.40
7317;DHT22;3699;51.462;6.696;2022-07-17T08:25:08;27.70;47.50
7317;DHT22;3699;51.462;6.696;2022-07-17T08:27:35;27.70;47.50
7317;DHT22;3699;51.462;6.696;2022-07-17T08:30:04;27.80;47.70
7317;DHT22;3699;51.462;6.696;2022-07-17T08:32:33;27.70;47.90
7317;DHT22;3699;51.462;6.696;2022-07-17T08:35:00;27.80;48.10
7317;DHT22;3699;51.462;6.696;2022-07-17T08:37:27;28.00;48.20
7317;DHT22;3699;51.462;6.696;2022-07-17T08:39:54;28.20;50.00
7317;DHT22;3699;51.462;6.696;2022-07-17T08:42:21;28.30;46.70
7317;DHT22;3699;51.462;6.696;2022-07-17T08:44:48;28.30;47.00
7317;DHT22;3699;51.462;6.696;2022-07-17T08:47:16;28.30;46.40
7317;DHT22;3699;51.462;6.696;2022-07-17T08:49:45;28.20;46.50
7317;DHT22;3699;51.462;6.696;2022-07-17T08:52:13;28.20;45.90
7317;DHT22;3699;51.462;6.696;2022-07-17T08:54:40;28.30;45.60
7317;DHT22;3699;51.462;6.696;2022-07-17T08:57:08;28.20;44.90
7317;DHT22;3699;51.462;6.696;2022-07-17T08:59:36;28.20;45.50
7317;DHT22;3699;51.462;6.696;2022-07-17T09:02:04;28.40;46.40
7317;DHT22;3699;51.462;6.696;2022-07-17T09:04:31;28.60;45.40
7317;DHT22;3699;51.462;6.696;2022-07-17T09:07:01;28.70;44.30
7317;DHT22;3699;51.462;6.696;2022-07-17T09:09:28;28.70;47.60
7317;DHT22;3699;51.462;6.696;2022-07-17T09:11:57;28.90;45.70
7317;DHT22;3699;51.462;6.696;2022-07-17T09:14:36;28.90;47.50
7317;DHT22;3699;51.462;6.696;2022-07-17T09:17:04;29.00;43.80
7317;DHT22;3699;51.462;6.696;2022-07-17T09:19:33;29.00;43.20
7317;DHT22;3699;51.462;6.696;2022-07-17T09:22:06;29.00;43.60
7317;DHT22;3699;51.462;6.696;2022-07-17T09:24:41;28.90;43.80
7317;DHT22;3699;51.462;6.696;2022-07-17T09:27:09;28.90;42.80
7317;DHT22;3699;51.462;6.696;2022-07-17T09:29:50;28.90;42.30
7317;DHT22;3699;51.462;6.696;2022-07-17T09:32:18;28.80;42.50
7317;DHT22;3699;51.462;6.696;2022-07-17T09:34:46;28.70;42.90
7317;DHT22;3699;51.462;6.696;2022-07-17T09:37:15;28.80;41.90
7317;DHT22;3699;51.462;6.696;2022-07-17T09:39:43;28.50;43.90
7317;DHT22;3699;51.462;6.696;2022-07-17T09:42:21;28.50;42.40
7317;DHT22;3699;51.462;6.696;2022-07-17T09:44:55;28.60;42.50
7317;DHT22;3699;51.462;6.696;2022-07-17T09:47:22;28.70;41.60
7317;DHT22;3699;51.462;6.696;2022-07-17T09:49:51;28.70;43.60
7317;DHT22;3699;51.462;6.696;2022-07-17T09:52:21;28.80;42.30
7317;DHT22;3699;51.462;6.696;2022-07-17T09:54:51;28.80;41.50
7317;DHT22;3699;51.462;6.696;2022-07-17T09:57:18;28.90;42.70
7317;DHT22;3699;51.462;6.696;2022-07-17T09:59:45;29.00;42.60
7317;DHT22;3699;51.462;6.696;2022-07-17T10:02:13;29.20;40.80
7317;DHT22;3699;51.462;6.696;2022-07-17T10:04:41;29.10;40.00
7317;DHT22;3699;51.462;6.696;2022-07-17T10:07:09;29.00;40.70
7317;DHT22;3699;51.462;6.696;2022-07-17T10:09:37;28.90;40.00
7317;DHT22;3699;51.462;6.696;2022-07-17T10:12:05;29.00;41.90
7317;DHT22;3699;51.462;6.696;2022-07-17T10:14:33;29.10;41.50
7317;DHT22;3699;51.462;6.696;2022-07-17T10:17:06;29.20;40.10
7317;DHT22;3699;51.462;6.696;2022-07-17T10:19:33;29.30;39.80
7317;DHT22;3699;51.462;6.696;2022-07-17T10:22:04;29.40;38.80
7317;DHT22;3699;51.462;6.696;2022-07-17T10:24:31;29.20;39.60
7317;DHT22;3699;51.462;6.696;2022-07-17T10:27:00;29.10;39.50
7317;DHT22;3699;51.462;6.696;2022-07-17T10:29:37;29.00;40.10
7317;DHT22;3699;51.462;6.696;2022-07-17T10:32:16;29.00;40.80
7317;DHT22;3699;51.462;6.696;2022-07-17T10:34:45;29.00;38.70
7317;DHT22;3699;51.462;6.696;2022-07-17T10:37:20;28.80;40.20
7317;DHT22;3699;51.462;6.696;2022-07-17T10:39:52;28.70;40.30
7317;DHT22;3699;51.462;6.696;2022-07-17T10:42:43;28.60;40.10
7317;DHT22;3699;51.462;6.696;2022-07-17T10:45:12;28.60;39.70
7317;DHT22;3699;51.462;6.696;2022-07-17T10:47:44;28.70;39.60
7317;DHT22;3699;51.462;6.696;2022-07-17T10:50:11;28.70;39.40
7317;DHT22;3699;51.462;6.696;2022-07-17T10:52:38;28.70;38.30
7317;DHT22;3699;51.462;6.696;2022-07-17T10:55:27;28.60;38.50
7317;DHT22;3699;51.462;6.696;2022-07-17T10:57:55;28.50;39.10
7317;DHT22;3699;51.462;6.696;2022-07-17T11:00:23;28.40;38.20
7317;DHT22;3699;51.462;6.696;2022-07-17T11:02:50;28.20;38.60
7317;DHT22;3699;51.462;6.696;2022-07-17T11:05:17;28.20;39.70
7317;DHT22;3699;51.462;6.696;2022-07-17T11:07:55;28.20;38.80
7317;DHT22;3699;51.462;6.696;2022-07-17T11:10:24;28.10;38.00
7317;DHT22;3699;51.462;6.696;2022-07-17T11:12:52;28.20;41.30
7317;DHT22;3699;51.462;6.696;2022-07-17T11:15:21;28.30;40.90
7317;DHT22;3699;51.462;6.696;2022-07-17T11:17:49;28.40;38.60
7317;DHT22;3699;51.462;6.696;2022-07-17T11:20:16;28.40;39.40
7317;DHT22;3699;51.462;6.696;2022-07-17T11:22:44;28.40;39.20
7317;DHT22;3699;51.462;6.696;2022-07-17T11:25:11;28.40;39.00
7317;DHT22;3699;51.462;6.696;2022-07-17T11:27:39;28.40;38.40
7317;DHT22;3699;51.462;6.696;2022-07-17T11:30:12;28.30;38.00
7317;DHT22;3699;51.462;6.696;2022-07-17T11:32:43;28.20;39.60
7317;DHT22;3699;51.462;6.696;2022-07-17T11:35:17;28.20;38.70
7317;DHT22;3699;51.462;6.696;2022-07-17T11:37:44;28.20;39.00
7317;DHT22;3699;51.462;6.696;2022-07-17T11:40:11;28.10;37.40
7317;DHT22;3699;51.462;6.696;2022-07-17T11:42:38;28.10;38.00
7317;DHT22;3699;51.462;6.696;2022-07-17T11:45:06;28.20;36.70
7317;DHT22;3699;51.462;6.696;2022-07-17T11:47:35;28.30;36.10
7317;DHT22;3699;51.462;6.696;2022-07-17T11:50:08;28.30;36.10
7317;DHT22;3699;51.462;6.696;2022-07-17T11:52:40;28.20;36.80
7317;DHT22;3699;51.462;6.696;2022-07-17T11:55:08;28.20;35.60
7317;DHT22;3699;51.462;6.696;2022-07-17T11:57:42;28.20;35.40
7317;DHT22;3699;51.462;6.696;2022-07-17T12:00:11;28.20;34.40
7317;DHT22;3699;51.462;6.696;2022-07-17T12:02:38;28.20;35.00
7317;DHT22;3699;51.462;6.696;2022-07-17T12:05:07;28.20;34.70
7317;DHT22;3699;51.462;6.696;2022-07-17T12:07:43;28.20;34.20
7317;DHT22;3699;51.462;6.696;2022-07-17T12:10:17;28.20;34.70
7317;DHT22;3699;51.462;6.696;2022-07-17T12:12:56;28.20;33.80
7317;DHT22;3699;51.462;6.696;2022-07-17T12:15:35;28.20;35.20
7317;DHT22;3699;51.462;6.696;2022-07-17T12:18:02;28.30;35.30
7317;DHT22;3699;51.462;6.696;2022-07-17T12:20:42;28.30;32.60
7317;DHT22;3699;51.462;6.696;2022-07-17T12:23:09;28.40;35.00
7317;DHT22;3699;51.462;6.696;2022-07-17T12:25:36;28.50;33.60
7317;DHT22;3699;51.462;6.696;2022-07-17T12:28:03;28.60;32.00
7317;DHT22;3699;51.462;6.696;2022-07-17T12:30:30;28.70;31.10
7317;DHT22;3699;51.462;6.696;2022-07-17T12:32:58;28.70;33.00
7317;DHT22;3699;51.462;6.696;2022-07-17T12:35:25;28.80;29.70
7317;DHT22;3699;51.462;6.696;2022-07-17T12:37:53;28.70;30.80
7317;DHT22;3699;51.462;6.696;2022-07-17T12:40:20;28.80;30.80
7317;DHT22;3699;51.462;6.696;2022-07-17T12:42:47;28.70;32.20
7317;DHT22;3699;51.462;6.696;2022-07-17T12:45:14;28.70;31.70
7317;DHT22;3699;51.462;6.696;2022-07-17T12:47:41;28.60;31.80
7317;DHT22;3699;51.462;6.696;2022-07-17T12:50:08;28.50;32.30
7317;DHT22;3699;51.462;6.696;2022-07-17T12:52:35;28.60;30.60
7317;DHT22;3699;51.462;6.696;2022-07-17T12:55:04;28.70;31.60
7317;DHT22;3699;51.462;6.696;2022-07-17T12:57:31;28.90;29.60
7317;DHT22;3699;51.462;6.696;2022-07-17T12:59:58;28.90;29.80
7317;DHT22;3699;51.462;6.696;2022-07-17T13:02:25;29.00;29.90
7317;DHT22;3699;51.462;6.696;2022-07-17T13:04:52;29.00;29.30
7317;DHT22;3699;51.462;6.696;2022-07-17T13:07:19;29.00;29.00
7317;DHT22;3699;51.462;6.696;2022-07-17T13:09:46;28.90;27.80
7317;DHT22;3699;51.462;6.696;2022-07-17T13:12:14;28.80;28.60
7317;DHT22;3699;51.462;6.696;2022-07-17T13:14:41;28.60;27.50
7317;DHT22;3699;51.462;6.696;2022-07-17T13:17:08;28.50;27.90
7317;DHT22;3699;51.462;6.696;2022-07-17T13:19:34;28.50;28.30
7317;DHT22;3699;51.462;6.696;2022-07-17T13:22:02;28.50;28.40
7317;DHT22;3699;51.462;6.696;2022-07-17T13:24:30;28.40;27.70
7317;DHT22;3699;51.462;6.696;2022-07-17T13:26:57;28.50;27.40
7317;DHT22;3699;51.462;6.696;2022-07-17T13:29:25;28.60;27.20
7317;DHT22;3699;51.462;6.696;2022-07-17T13:31:53;28.60;26.60
7317;DHT22;3699;51.462;6.696;2022-07-17T13:34:19;28.60;27.30
7317;DHT22;3699;51.462;6.696;2022-07-17T13:36:46;28.60;27.40
7317;DHT22;3699;51.462;6.696;2022-07-17T13:39:14;28.70;27.30
7317;DHT22;3699;51.462;6.696;2022-07-17T13:41:41;28.80;27.50
7317;DHT22;3699;51.462;6.696;2022-07-17T13:44:08;28.90;26.50
7317;DHT22;3699;51.462;6.696;2022-07-17T13:46:36;29.10;26.70
7317;DHT22;3699;51.462;6.696;2022-07-17T13:49:03;29.30;27.20
7317;DHT22;3699;51.462;6.696;2022-07-17T13:51:30;29.40;29.20
7317;DHT22;3699;51.462;6.696;2022-07-17T13:53:58;29.60;29.60
7317;DHT22;3699;51.462;6.696;2022-07-17T13:56:25;29.60;28.50
7317;DHT22;3699;51.462;6.696;2022-07-17T13:58:52;29.70;29.30
7317;DHT22;3699;51.462;6.696;2022-07-17T14:01:19;29.80;29.00
7317;DHT22;3699;51.462;6.696;2022-07-17T14:03:47;29.80;28.40
7317;DHT22;3699;51.462;6.696;2022-07-17T14:06:14;29.90;28.70
7317;DHT22;3699;51.462;6.696;2022-07-17T14:08:42;30.10;29.00
7317;DHT22;3699;51.462;6.696;2022-07-17T14:11:10;30.10;29.60
7317;DHT22;3699;51.462;6.696;2022-07-17T14:13:38;30.10;29.30
7317;DHT22;3699;51.462;6.696;2022-07-17T14:16:05;30.10;29.40
7317;DHT22;3699;51.462;6.696;2022-07-17T14:18:32;30.00;29.70
7317;DHT22;3699;51.462;6.696;2022-07-17T14:21:00;29.80;29.90
7317;DHT22;3699;51.462;6.696;2022-07-17T14:23:27;29.70;29.90
7317;DHT22;3699;51.462;6.696;2022-07-17T14:25:54;29.70;31.20
7317;DHT22;3699;51.462;6.696;2022-07-17T14:28:20;29.70;30.70
7317;DHT22;3699;51.462;6.696;2022-07-17T14:30:47;29.70;30.30
7317;DHT22;3699;51.462;6.696;2022-07-17T14:33:14;29.80;30.00
7317;DHT22;3699;51.462;6.696;2022-07-17T14:35:41;29.80;30.50
7317;DHT22;3699;51.462;6.696;2022-07-17T14:38:09;29.80;30.80
7317;DHT22;3699;51.462;6.696;2022-07-17T14:40:36;29.90;31.40
7317;DHT22;3699;51.462;6.696;2022-07-17T14:43:05;29.90;30.30
7317;DHT22;3699;51.462;6.696;2022-07-17T14:45:33;29.90;30.50
7317;DHT22;3699;51.462;6.696;2022-07-17T14:48:02;29.80;30.60
7317;DHT22;3699;51.462;6.696;2022-07-17T14:50:29;29.80;30.70
7317;DHT22;3699;51.462;6.696;2022-07-17T14:52:56;29.70;30.80
7317;DHT22;3699;51.462;6.696;2022-07-17T14:55:24;29.70;30.60
7317;DHT22;3699;51.462;6.696;2022-07-17T14:57:52;29.60;30.20
7317;DHT22;3699;51.462;6.696;2022-07-17T15:00:19;29.40;30.80
7317;DHT22;3699;51.462;6.696;2022-07-17T15:02:50;29.40;31.40
7317;DHT22;3699;51.462;6.696;2022-07-17T15:05:17;29.30;30.30
7317;DHT22;3699;51.462;6.696;2022-07-17T15:07:44;29.10;31.10
7317;DHT22;3699;51.462;6.696;2022-07-17T15:10:11;29.00;31.20
7317;DHT22;3699;51.462;6.696;2022-07-17T15:12:39;29.00;30.60
7317;DHT22;3699;51.462;6.696;2022-07-17T15:15:07;29.00;30.50
7317;DHT22;3699;51.462;6.696;2022-07-17T15:17:35;29.00;32.40
7317;DHT22;3699;51.462;6.696;2022-07-17T15:20:02;29.00;32.60
7317;DHT22;3699;51.462;6.696;2022-07-17T15:22:29;29.00;32.00
7317;DHT22;3699;51.462;6.696;2022-07-17T15:24:56;29.00;31.30
7317;DHT22;3699;51.462;6.696;2022-07-17T15:27:22;28.90;30.60
7317;DHT22;3699;51.462;6.696;2022-07-17T15:29:51;28.90;30.90
7317;DHT22;3699;51.462;6.696;2022-07-17T15:32:18;28.90;33.50
7317;DHT22;3699;51.462;6.696;2022-07-17T15:34:45;28.90;31.30
7317;DHT22;3699;51.462;6.696;2022-07-17T15:37:11;28.90;31.20
7317;DHT22;3699;51.462;6.696;2022-07-17T15:39:38;28.90;31.30
7317;DHT22;3699;51.462;6.696;2022-07-17T15:42:05;28.90;31.00
7317;DHT22;3699;51.462;6.696;2022-07-17T15:44:32;28.80;31.10
7317;DHT22;3699;51.462;6.696;2022-07-17T15:47:00;28.80;30.00
7317;DHT22;3699;51.462;6.696;2022-07-17T15:49:28;28.80;30.60
7317;DHT22;3699;51.462;6.696;2022-07-17T15:51:55;28.80;30.30
7317;DHT22;3699;51.462;6.696;2022-07-17T15:54:22;28.70;30.00
7317;DHT22;3699;51.462;6.696;2022-07-17T15:56:49;28.60;29.90
7317;DHT22;3699;51.462;6.696;2022-07-17T15:59:16;28.50;29.90
7317;DHT22;3699;51.462;6.696;2022-07-17T16:01:43;28.50;31.00
7317;DHT22;3699;51.462;6.696;2022-07-17T16:04:13;28.50;30.60
7317;DHT22;3699;51.462;6.696;2022-07-17T16:06:40;28.50;30.10